createdAt,value
2019-02-28T00:03:59.077Z,52.96
2019-02-28T00:08:06.424Z,52.21
2019-02-28T00:12:14.299Z,52.60
2019-02-28T00:16:21.429Z,52.27
2019-02-28T00:20:29.187Z,52.62
2019-02-28T00:24:36.960Z,52.40
2019-02-28T00:28:43.845Z,52.65
2019-02-28T00:32:50.793Z,52.82
2019-02-28T00:36:57.616Z,52.74
2019-02-28T00:41:05.580Z,52.91
2019-02-28T00:45:12.803Z,53.01
2019-02-28T00:49:19.652Z,52.71
2019-02-28T00:53:26.462Z,52.84
2019-02-28T00:57:35.388Z,53.17
2019-02-28T01:01:45.884Z,53.45
2019-02-28T01:05:52.032Z,53.61
2019-02-28T01:10:01.360Z,54.17
2019-02-28T01:14:07.533Z,54.21
2019-02-28T01:18:14.489Z,54.14
2019-02-28T01:22:21.445Z,54.20
2019-02-28T01:26:30.457Z,53.99
2019-02-28T01:30:37.093Z,53.88
2019-02-28T01:34:45.511Z,53.66
2019-02-28T01:38:57.573Z,53.68
2019-02-28T01:43:00.908Z,53.37
2019-02-28T01:47:07.901Z,53.15
2019-02-28T01:51:14.814Z,53.08
2019-02-28T01:55:21.644Z,52.92
2019-02-28T01:59:28.497Z,52.55
2019-02-28T02:03:36.342Z,52.23
2019-02-28T02:07:43.325Z,52.08
2019-02-28T02:11:50.222Z,52.03
2019-02-28T02:15:57.078Z,52.16
2019-02-28T02:20:04.034Z,52.38
2019-02-28T02:24:10.947Z,52.65
2019-02-28T02:28:17.917Z,53.02
2019-02-28T02:32:24.738Z,53.15
2019-02-28T02:36:31.574Z,53.16
2019-02-28T02:40:38.404Z,53.23
2019-02-28T02:44:45.235Z,53.07
2019-02-28T02:48:52.086Z,53.32
2019-02-28T02:53:05.039Z,53.64
2019-02-28T02:57:07.547Z,53.88
2019-02-28T03:01:14.505Z,54.25
2019-02-28T03:05:21.483Z,54.57
2019-02-28T03:09:28.383Z,55.18
2019-02-28T03:13:42.120Z,55.50
2019-02-28T03:17:55.726Z,55.93
2019-02-28T03:22:02.618Z,56.38
2019-02-28T03:26:09.504Z,56.51
2019-02-28T03:30:27.846Z,56.77
2019-02-28T03:34:25.997Z,56.79
2019-02-28T03:38:32.862Z,56.84
2019-02-28T03:42:39.841Z,57.17
2019-02-28T03:46:47.899Z,57.06
2019-02-28T03:50:55.553Z,57.18
2019-02-28T03:55:04.760Z,57.07
2019-02-28T03:59:18.233Z,57.03
2019-02-28T04:03:20.528Z,57.63
2019-02-28T04:07:27.491Z,57.98
2019-02-28T04:11:34.377Z,57.91
2019-02-28T04:15:49.739Z,58.20
2019-02-28T04:19:50.030Z,58.51
2019-02-28T04:23:56.852Z,58.59
2019-02-28T04:28:03.778Z,58.56
2019-02-28T04:32:10.728Z,58.72
2019-02-28T04:36:17.559Z,58.68
2019-02-28T04:40:26.992Z,58.48
2019-02-28T04:44:33.063Z,58.70
2019-02-28T04:48:39.985Z,58.39
2019-02-28T04:52:48.175Z,58.64
2019-02-28T04:56:55.384Z,58.78
2019-02-28T05:01:02.268Z,58.47
2019-02-28T05:05:12.657Z,58.57
2019-02-28T05:09:18.297Z,58.54
2019-02-28T05:13:25.161Z,58.38
2019-02-28T05:17:32.041Z,59.01
2019-02-28T05:21:38.890Z,58.72
2019-02-28T05:25:45.776Z,59.02
2019-02-28T05:29:52.793Z,59.40
2019-02-28T05:33:59.631Z,59.52
2019-02-28T05:38:06.481Z,59.49
2019-02-28T05:42:13.355Z,59.65
2019-02-28T05:46:23.502Z,59.75
2019-02-28T05:50:29.328Z,60.09
2019-02-28T05:54:36.338Z,60.42
2019-02-28T05:58:43.354Z,60.54
2019-02-28T06:02:50.452Z,61.63
2019-02-28T06:06:57.440Z,64.98
2019-02-28T06:11:04.334Z,61.60
2019-02-28T06:15:11.975Z,61.61
2019-02-28T06:19:20.328Z,61.86
2019-02-28T06:23:28.508Z,61.82
2019-02-28T06:27:41.710Z,62.44
2019-02-28T06:31:49.843Z,63.09
2019-02-28T06:35:57.360Z,63.05
2019-02-28T06:40:09.012Z,63.28
2019-02-28T06:44:16.222Z,63.60
2019-02-28T06:48:25.929Z,63.99
2019-02-28T06:52:31.840Z,63.77
2019-02-28T06:56:38.736Z,63.89
2019-02-28T07:00:47.418Z,64.13
2019-02-28T07:04:54.256Z,63.59
2019-02-28T07:09:02.494Z,63.29
2019-02-28T07:13:11.929Z,63.12
2019-02-28T07:17:19.011Z,62.72
2019-02-28T07:21:26.121Z,62.78
2019-02-28T07:25:33.189Z,62.46
2019-02-28T07:29:42.734Z,62.12
2019-02-28T07:33:48.918Z,62.07
2019-02-28T07:37:55.800Z,61.90
2019-02-28T07:42:03.053Z,61.62
2019-02-28T07:46:10.072Z,61.45
2019-02-28T07:50:17.357Z,61.36
2019-02-28T07:54:24.254Z,60.78
2019-02-28T07:58:33.492Z,60.77
2019-02-28T08:02:40.021Z,59.84
2019-02-28T08:06:46.959Z,59.20
2019-02-28T08:10:53.866Z,58.65
2019-02-28T08:15:00.701Z,57.09
2019-02-28T08:19:07.878Z,56.07
2019-02-28T08:23:15.710Z,54.47
2019-02-28T08:27:25.419Z,52.28
2019-02-28T08:31:32.000Z,51.33
2019-02-28T08:35:39.901Z,50.87
2019-02-28T08:39:47.069Z,49.90
2019-02-28T08:43:55.007Z,48.68
2019-02-28T08:48:01.944Z,48.26
2019-02-28T08:52:08.900Z,47.65
2019-02-28T08:56:15.781Z,45.70
2019-02-28T09:00:22.928Z,44.31
2019-02-28T09:04:41.031Z,43.15
2019-02-28T09:08:42.770Z,42.80
2019-02-28T09:12:50.168Z,41.49
2019-02-28T09:17:00.070Z,41.31
2019-02-28T09:21:07.055Z,40.74
2019-02-28T09:25:21.421Z,41.30
2019-02-28T09:29:24.668Z,41.84
2019-02-28T09:33:31.613Z,42.39
2019-02-28T09:37:38.793Z,42.53
2019-02-28T09:41:46.261Z,41.98
2019-02-28T09:45:56.839Z,42.20
2019-02-28T09:50:03.978Z,41.90
2019-02-28T09:54:11.136Z,42.19
2019-02-28T09:58:18.504Z,42.25
2019-02-28T10:02:25.540Z,42.46
2019-02-28T10:06:33.326Z,42.56
2019-02-28T10:10:40.547Z,42.96
2019-02-28T10:14:48.613Z,43.37
2019-02-28T10:18:55.699Z,42.36
2019-02-28T10:23:02.602Z,42.43
2019-02-28T10:27:09.694Z,42.64
2019-02-28T10:31:16.796Z,42.38
2019-02-28T10:35:23.766Z,43.15
2019-02-28T10:39:30.865Z,43.80
2019-02-28T10:43:38.031Z,44.19
2019-02-28T10:47:45.221Z,44.94
2019-02-28T10:51:52.307Z,44.39
2019-02-28T10:55:59.410Z,44.29
2019-02-28T11:00:11.824Z,42.66
2019-02-28T11:04:18.797Z,43.69
2019-02-28T11:08:27.438Z,43.31
2019-02-28T11:12:34.458Z,44.51
2019-02-28T11:16:41.654Z,44.04
2019-02-28T11:20:48.616Z,44.71
2019-02-28T11:25:00.481Z,44.42
2019-02-28T11:29:04.443Z,44.13
2019-02-28T11:33:11.728Z,43.75
2019-02-28T11:37:18.677Z,43.69
2019-02-28T11:41:25.681Z,43.77
2019-02-28T11:45:32.893Z,43.86
2019-02-28T11:49:39.892Z,43.58
2019-02-28T11:53:46.962Z,44.29
2019-02-28T11:57:53.947Z,44.21
2019-02-28T12:02:00.798Z,44.05
2019-02-28T12:06:07.676Z,43.69
2019-02-28T12:10:14.714Z,43.53
2019-02-28T12:14:22.755Z,43.43
2019-02-28T12:18:29.667Z,43.30
2019-02-28T12:22:36.495Z,42.40
2019-02-28T12:26:43.622Z,40.20
2019-02-28T12:30:50.577Z,37.82
2019-02-28T12:35:01.479Z,36.73
2019-02-28T12:39:08.588Z,35.67
2019-02-28T12:43:15.834Z,34.63
2019-02-28T12:47:23.593Z,34.53
2019-02-28T12:51:30.505Z,33.86
2019-02-28T12:55:39.040Z,33.64
2019-02-28T12:59:47.043Z,32.60
2019-02-28T13:04:00.193Z,33.19
2019-02-28T13:08:05.779Z,32.44
2019-02-28T13:12:12.106Z,32.96
2019-02-28T13:16:20.793Z,32.25
2019-02-28T13:20:33.528Z,33.31
2019-02-28T13:24:38.233Z,32.93
2019-02-28T13:28:45.250Z,33.14
2019-02-28T13:32:52.205Z,32.44
2019-02-28T13:37:02.831Z,31.66
2019-02-28T13:41:08.090Z,33.35
2019-02-28T13:45:22.270Z,32.64
2019-02-28T13:49:24.724Z,32.59
2019-02-28T13:53:31.955Z,32.14
2019-02-28T13:57:40.691Z,32.18
2019-02-28T14:01:52.141Z,32.23
2019-02-28T14:05:57.530Z,32.36
2019-02-28T14:10:05.233Z,32.52
2019-02-28T14:14:12.449Z,33.23
2019-02-28T14:18:19.511Z,33.96
2019-02-28T14:22:26.564Z,33.81
2019-02-28T14:26:42.399Z,35.10
2019-02-28T14:30:42.435Z,35.82
2019-02-28T14:34:49.325Z,36.38
2019-02-28T14:38:58.735Z,37.09
2019-02-28T14:43:19.843Z,37.43
2019-02-28T14:47:28.510Z,37.69
2019-02-28T14:51:36.365Z,38.14
2019-02-28T14:56:04.390Z,38.29
2019-02-28T15:00:25.057Z,38.25
2019-02-28T15:04:32.004Z,38.46
2019-02-28T15:08:39.260Z,38.29
2019-02-28T15:12:46.429Z,38.21
2019-02-28T15:16:53.396Z,38.84
2019-02-28T15:21:00.441Z,39.20
2019-02-28T15:25:08.243Z,39.41
2019-02-28T15:29:15.340Z,39.66
2019-02-28T15:33:22.310Z,40.02
2019-02-28T15:37:30.451Z,40.53
2019-02-28T15:41:38.085Z,41.38
2019-02-28T15:45:45.268Z,42.63
2019-02-28T15:49:52.920Z,43.01
2019-02-28T15:53:59.918Z,43.86
2019-02-28T15:58:07.261Z,43.59
2019-02-28T16:02:15.615Z,44.11
2019-02-28T16:06:25.086Z,44.75
2019-02-28T16:10:32.959Z,44.74
2019-02-28T16:14:40.178Z,45.28
2019-02-28T16:18:47.995Z,45.28
2019-02-28T16:22:55.361Z,45.47
2019-02-28T16:27:02.408Z,46.09
2019-02-28T16:31:09.405Z,46.71
2019-02-28T16:35:16.256Z,47.14
2019-02-28T16:39:24.854Z,47.41
2019-02-28T16:43:33.909Z,47.83
2019-02-28T16:47:40.532Z,47.90
2019-02-28T16:51:47.387Z,48.47
2019-02-28T16:55:54.319Z,48.70
2019-02-28T17:00:04.029Z,49.49
2019-02-28T17:04:13.528Z,49.92
2019-02-28T17:08:20.113Z,50.29
2019-02-28T17:12:54.295Z,52.95
2019-02-28T17:17:08.737Z,53.85
2019-02-28T17:21:17.923Z,55.05
2019-02-28T17:25:23.703Z,55.33
2019-02-28T17:29:36.206Z,54.97
2019-02-28T17:33:46.800Z,54.89
2019-02-28T17:37:52.468Z,54.27
2019-02-28T17:42:08.096Z,53.82
2019-02-28T17:46:10.325Z,53.43
2019-02-28T17:50:59.141Z,51.90
2019-02-28T17:55:52.647Z,51.67
2019-02-28T18:01:28.661Z,51.70
2019-02-28T18:06:26.924Z,51.22
2019-02-28T18:11:24.711Z,51.07
2019-02-28T18:16:30.460Z,51.04
2019-02-28T18:21:21.810Z,51.20
2019-02-28T18:26:38.691Z,51.10
2019-02-28T18:31:15.086Z,51.25
2019-02-28T18:35:22.062Z,51.78
2019-02-28T18:39:29.003Z,52.05
2019-02-28T18:43:36.306Z,52.56
2019-02-28T18:47:43.359Z,53.18
2019-02-28T18:51:51.449Z,52.97
2019-02-28T18:55:58.558Z,52.96
2019-02-28T19:00:08.543Z,53.58
2019-02-28T19:04:15.237Z,53.72
2019-02-28T19:08:22.567Z,53.56
2019-02-28T19:12:29.633Z,54.14
2019-02-28T19:16:36.692Z,53.97
2019-02-28T19:20:43.837Z,54.12
2019-02-28T19:24:53.667Z,54.27
2019-02-28T19:29:00.613Z,55.07
2019-02-28T19:33:09.771Z,54.53
2019-02-28T19:37:16.989Z,55.35
2019-02-28T19:41:24.334Z,55.13
2019-02-28T19:45:32.095Z,55.16
2019-02-28T19:49:40.379Z,55.91
2019-02-28T19:53:47.737Z,56.30
2019-02-28T19:57:54.578Z,56.63
2019-02-28T20:02:01.569Z,56.78
2019-02-28T20:06:08.713Z,56.48
2019-02-28T20:10:17.243Z,56.94
2019-02-28T20:14:24.345Z,57.75
2019-02-28T20:18:31.314Z,57.41
2019-02-28T20:22:38.402Z,59.14
2019-02-28T20:26:45.530Z,58.75
2019-02-28T20:30:55.338Z,59.61
2019-02-28T20:35:02.565Z,60.39
2019-02-28T20:39:13.843Z,60.03
2019-02-28T20:43:21.888Z,60.27
2019-02-28T20:47:35.031Z,61.40
2019-02-28T20:51:42.151Z,61.19
2019-02-28T20:55:49.180Z,62.39
2019-02-28T20:59:59.820Z,62.49
2019-02-28T21:04:06.653Z,62.78
2019-02-28T21:08:21.293Z,63.08
2019-02-28T21:12:28.458Z,62.77
2019-02-28T21:16:35.519Z,62.46
2019-02-28T21:20:47.826Z,63.66
2019-02-28T21:24:54.919Z,63.85
2019-02-28T21:29:01.943Z,63.73
2019-02-28T21:33:09.062Z,63.39
2019-02-28T21:37:16.297Z,64.15
2019-02-28T21:41:23.235Z,63.96
2019-02-28T21:45:30.380Z,64.62
2019-02-28T21:49:37.328Z,64.55
2019-02-28T21:53:47.461Z,65.45
2019-02-28T21:57:58.815Z,66.95
2019-02-28T22:02:06.547Z,66.22
2019-02-28T22:06:13.519Z,66.04
2019-02-28T22:10:22.926Z,66.13
2019-02-28T22:14:33.684Z,65.93
2019-02-28T22:18:40.711Z,66.03
2019-02-28T22:22:47.506Z,66.04
2019-02-28T22:26:56.905Z,65.58
2019-02-28T22:31:31.499Z,65.81
2019-02-28T22:35:41.976Z,65.69
2019-02-28T22:39:48.992Z,65.89
2019-02-28T22:43:55.944Z,65.73
2019-02-28T22:48:05.553Z,65.92
2019-02-28T22:52:13.803Z,65.89
2019-02-28T22:56:20.968Z,65.84
2019-02-28T23:01:04.913Z,65.96
2019-02-28T23:05:12.666Z,66.03
2019-02-28T23:09:21.473Z,65.67
2019-02-28T23:13:28.364Z,65.69
2019-02-28T23:17:35.169Z,65.38
2019-02-28T23:21:42.091Z,65.41
2019-02-28T23:25:48.969Z,65.36
2019-02-28T23:31:07.837Z,65.09
2019-02-28T23:35:24.788Z,65.21
2019-02-28T23:39:33.287Z,65.17
2019-02-28T23:43:40.252Z,65.43
2019-02-28T23:47:47.372Z,65.68
2019-02-28T23:51:54.257Z,65.67
2019-02-28T23:56:01.149Z,65.76
